createdAt,value
2022-11-27T00:23:02.402Z,45
2022-11-27T00:52:57.436Z,44
2022-11-27T01:24:07.153Z,43
2022-11-27T01:54:01.501Z,47
2022-11-27T02:24:01.224Z,44
2022-11-27T02:54:00.262Z,47
2022-11-27T03:25:03.604Z,41
2022-11-27T03:54:54.582Z,42
2022-11-27T04:24:56.385Z,39
2022-11-27T04:56:03.080Z,39
2022-11-27T05:25:53.500Z,39
2022-11-27T05:55:56.331Z,35
2022-11-27T06:25:55.527Z,45
2022-11-27T06:55:50.347Z,39
2022-11-27T07:25:52.491Z,44
2022-11-27T07:55:47.363Z,47
2022-11-27T08:25:48.449Z,44
2022-11-27T08:55:51.937Z,45
2022-11-27T09:25:52.117Z,46
2022-11-27T09:55:55.140Z,50
2022-11-27T10:25:57.268Z,47
2022-11-27T10:55:56.554Z,47
2022-11-27T11:25:55.715Z,43
2022-11-27T11:55:54.202Z,46
2022-11-27T12:25:56.370Z,49
2022-11-27T12:55:57.910Z,46
2022-11-27T13:25:56.067Z,46
2022-11-27T13:55:58.700Z,46
2022-11-27T14:26:00.664Z,47
2022-11-27T14:56:02.370Z,50
2022-11-27T15:26:05.147Z,49
2022-11-27T15:56:00.719Z,53
2022-11-27T16:26:00.588Z,59
2022-11-27T16:56:02.490Z,64
2022-11-27T17:25:58.485Z,58
2022-11-27T17:55:58.370Z,62
2022-11-27T18:25:55.819Z,62
2022-11-27T18:55:57.923Z,63
2022-11-27T19:25:53.258Z,57
2022-11-27T19:55:53.612Z,53
2022-11-27T20:25:53.237Z,57
2022-11-27T21:25:49.810Z,53
2022-11-27T21:55:51.461Z,47
2022-11-27T22:25:53.457Z,45
2022-11-27T22:55:49.879Z,41
2022-11-27T23:25:50.066Z,43
2022-11-27T23:55:51.976Z,41
